Time;durP1;ratioP1;P1;durP2;ratioP2;P2;SDS_P1;SDS_P2;PMS_P1;PMS_P2;Temp;Humidity;BMP_temperature;BMP_pressure;BME280_temperature;BME280_humidity;BME280_pressure;Samples;Min_cycle;Max_cycle;Signal;HPM_P1;HPM_P2
2022/07/28 00:00:48;;;;;;;6.10;5.50;;;17.90;92.10;;;;;;5071018;28;20431;-66
2022/07/28 00:03:18;;;;;;;5.00;4.50;;;17.80;92.00;;;;;;5071261;28;20522;-65
2022/07/28 00:05:46;;;;;;;5.40;4.90;;;17.70;92.30;;;;;;5071363;28;20508;-65
2022/07/28 00:08:13;;;;;;;6.50;5.43;;;17.60;92.80;;;;;;5072036;28;20440;-65
2022/07/28 00:10:40;;;;;;;7.40;5.07;;;17.60;93.00;;;;;;5071213;28;20463;-66
2022/07/28 00:13:12;;;;;;;6.10;4.30;;;17.50;93.20;;;;;;5072025;28;20489;-65
2022/07/28 00:15:39;;;;;;;9.30;5.40;;;17.60;93.30;;;;;;5071238;28;20471;-65
2022/07/28 00:18:06;;;;;;;5.50;4.73;;;17.50;93.40;;;;;;5072165;28;20480;-65
2022/07/28 00:20:33;;;;;;;6.57;5.67;;;17.50;93.70;;;;;;5071315;28;20440;-65
2022/07/28 00:23:00;;;;;;;7.83;6.00;;;17.40;93.80;;;;;;5071986;28;20447;-66
2022/07/28 00:25:27;;;;;;;9.20;5.57;;;17.40;94.20;;;;;;5071219;28;20552;-65
2022/07/28 00:27:54;;;;;;;7.67;6.87;;;17.40;94.40;;;;;;5072038;28;20502;-65
2022/07/28 00:30:23;;;;;;;8.77;6.43;;;17.30;94.90;;;;;;5071150;28;20526;-67
2022/07/28 00:32:54;;;;;;;5.63;5.00;;;17.30;95.20;;;;;;5071913;28;20491;-65
2022/07/28 00:35:22;;;;;;;7.77;6.10;;;17.20;96.00;;;;;;5071172;28;20537;-65
2022/07/28 00:37:49;;;;;;;10.13;5.30;;;17.20;95.90;;;;;;5071916;28;20436;-65
2022/07/28 00:40:17;;;;;;;6.57;5.80;;;17.20;95.90;;;;;;5070960;28;20509;-65
2022/07/28 00:42:45;;;;;;;7.70;5.70;;;17.20;95.80;;;;;;5073203;28;20851;-65
2022/07/28 00:45:12;;;;;;;10.03;6.33;;;17.10;95.60;;;;;;5074507;28;20580;-65
2022/07/28 00:47:41;;;;;;;7.00;6.30;;;17.10;95.70;;;;;;5075243;28;20857;-65
2022/07/28 00:50:08;;;;;;;8.80;5.90;;;17.00;96.20;;;;;;5074697;28;20448;-65
2022/07/28 00:52:36;;;;;;;11.37;7.83;;;17.00;96.30;;;;;;5074922;28;20471;-65
2022/07/28 00:55:04;;;;;;;9.63;7.67;;;17.00;96.30;;;;;;5074780;28;20976;-66
2022/07/28 00:57:31;;;;;;;12.30;8.03;;;16.90;96.90;;;;;;5055310;28;20437;-65
2022/07/28 00:59:58;;;;;;;12.03;7.97;;;16.90;97.60;;;;;;5055316;28;20931;-65
2022/07/28 01:02:25;;;;;;;9.97;6.97;;;16.80;98.10;;;;;;5073747;28;20531;-65
2022/07/28 01:04:54;;;;;;;9.80;6.60;;;16.80;98.20;;;;;;5075065;28;20577;-66
2022/07/28 01:07:31;;;;;;;8.90;7.47;;;16.80;98.30;;;;;;5072984;28;20471;-65
2022/07/28 01:10:06;;;;;;;8.10;6.67;;;16.80;98.30;;;;;;5073694;28;20530;-65
2022/07/28 01:12:50;;;;;;;9.70;5.50;;;16.80;98.80;;;;;;5075263;28;20463;-65
2022/07/28 01:15:25;;;;;;;6.63;5.73;;;16.70;98.60;;;;;;5073827;28;20440;-65
2022/07/28 01:18:03;;;;;;;10.40;7.53;;;16.70;98.90;;;;;;5074988;28;20475;-65
2022/07/28 01:20:36;;;;;;;8.67;7.33;;;16.60;98.70;;;;;;5073600;28;20743;-67
2022/07/28 01:23:40;;;;;;;8.53;6.53;;;16.50;98.80;;;;;;5073496;28;20460;-66
2022/07/28 01:26:20;;;;;;;7.67;6.23;;;16.50;99.20;;;;;;5073859;28;20479;-65
2022/07/28 01:29:02;;;;;;;6.70;6.00;;;16.40;99.90;;;;;;5074638;28;20800;-65
2022/07/28 01:31:39;;;;;;;6.67;5.83;;;16.40;99.70;;;;;;5074446;28;20482;-65
2022/07/28 01:34:10;;;;;;;7.43;6.30;;;16.40;99.90;;;;;;5074080;28;20446;-66
2022/07/28 01:36:43;;;;;;;8.27;7.13;;;16.40;99.90;;;;;;5073654;28;20428;-65
2022/07/28 01:39:10;;;;;;;7.13;6.43;;;16.30;99.90;;;;;;5073730;28;20482;-66
2022/07/28 01:41:39;;;;;;;5.63;4.97;;;16.30;99.90;;;;;;5073146;28;20489;-65
2022/07/28 01:44:10;;;;;;;6.40;5.73;;;16.30;99.90;;;;;;5074378;28;20471;-65
2022/07/28 01:46:39;;;;;;;7.00;6.30;;;16.20;99.90;;;;;;5072872;28;20519;-65
2022/07/28 01:49:08;;;;;;;6.20;5.20;;;16.20;99.90;;;;;;5074266;28;20850;-65
2022/07/28 01:51:37;;;;;;;8.20;5.70;;;16.20;99.90;;;;;;5073082;28;20472;-65
2022/07/28 01:54:06;;;;;;;16.50;8.80;;;16.10;99.90;;;;;;5073595;28;20432;-65
2022/07/28 01:56:34;;;;;;;9.67;8.43;;;16.10;99.90;;;;;;5072697;28;20908;-65
2022/07/28 01:59:08;;;;;;;10.87;7.53;;;16.10;99.90;;;;;;5073915;28;20809;-65
2022/07/28 02:01:37;;;;;;;11.90;7.83;;;16.10;99.90;;;;;;5072513;28;20436;-65
2022/07/28 02:04:07;;;;;;;10.60;7.10;;;16.10;99.90;;;;;;5074094;28;20523;-65
2022/07/28 02:06:35;;;;;;;7.80;6.87;;;16.10;99.90;;;;;;5072930;28;20986;-65
2022/07/28 02:09:05;;;;;;;15.20;6.63;;;16.20;99.90;;;;;;5073914;28;20501;-65
2022/07/28 02:11:41;;;;;;;6.43;5.73;;;16.20;99.90;;;;;;5072871;28;20485;-65
2022/07/28 02:14:11;;;;;;;6.90;6.30;;;16.20;99.90;;;;;;5072778;28;20493;-66
2022/07/28 02:16:41;;;;;;;10.53;6.13;;;16.10;99.90;;;;;;5073716;28;20507;-65
2022/07/28 02:19:11;;;;;;;7.10;5.30;;;16.20;99.90;;;;;;5073151;28;20432;-65
2022/07/28 02:21:46;;;;;;;7.30;6.17;;;16.20;99.90;;;;;;5072562;28;20960;-65
2022/07/28 02:24:16;;;;;;;10.43;6.43;;;16.10;99.90;;;;;;5073408;28;20463;-65
2022/07/28 02:26:50;;;;;;;10.60;6.70;;;16.00;99.90;;;;;;5072787;28;20476;-65
2022/07/28 02:29:21;;;;;;;7.87;7.10;;;16.00;99.90;;;;;;5073635;28;20432;-65
2022/07/28 02:31:52;;;;;;;9.80;7.50;;;15.90;99.90;;;;;;5071183;28;20919;-65
2022/07/28 02:34:23;;;;;;;9.80;7.47;;;15.90;99.90;;;;;;5073110;28;20768;-65
2022/07/28 02:36:56;;;;;;;8.40;7.37;;;15.80;99.90;;;;;;5073326;28;20767;-65
2022/07/28 02:39:25;;;;;;;9.70;8.70;;;15.80;99.90;;;;;;5071756;28;20844;-66
2022/07/28 02:41:58;;;;;;;8.70;7.00;;;15.90;99.90;;;;;;5073007;28;20976;-65
2022/07/28 02:44:29;;;;;;;9.00;7.60;;;15.80;99.90;;;;;;5072264;28;20468;-65
2022/07/28 02:46:59;;;;;;;9.00;7.70;;;15.80;99.90;;;;;;5073068;28;20523;-65
2022/07/28 02:49:32;;;;;;;10.70;5.70;;;15.90;99.90;;;;;;5072412;28;20432;-65
2022/07/28 02:52:01;;;;;;;7.30;5.47;;;15.90;99.90;;;;;;5072323;28;20513;-65
2022/07/28 02:54:31;;;;;;;5.97;5.37;;;15.80;99.90;;;;;;5072040;28;20884;-65
2022/07/28 02:57:00;;;;;;;5.43;4.93;;;15.70;99.90;;;;;;5072961;28;20882;-65
2022/07/28 02:59:28;;;;;;;7.27;4.63;;;15.70;99.90;;;;;;5070666;28;20901;-66
2022/07/28 03:01:56;;;;;;;7.53;6.50;;;15.70;99.90;;;;;;5072243;28;20435;-66
2022/07/28 03:07:13;;;;;;;7.70;6.80;;;15.50;99.90;;;;;;5071769;28;20480;-65
2022/07/28 03:09:41;;;;;;;7.80;6.73;;;15.40;99.90;;;;;;5071871;28;20432;-65
2022/07/28 03:12:08;;;;;;;6.97;6.27;;;15.40;99.90;;;;;;5072726;28;20440;-65
2022/07/28 03:14:35;;;;;;;7.97;6.27;;;15.40;99.90;;;;;;5071774;28;20428;-65
2022/07/28 03:17:02;;;;;;;6.40;5.80;;;15.40;99.90;;;;;;5072661;28;20508;-65
2022/07/28 03:19:29;;;;;;;9.03;6.30;;;15.40;99.90;;;;;;5071813;28;20440;-65
2022/07/28 03:21:56;;;;;;;9.30;6.00;;;15.50;99.90;;;;;;5072667;28;20479;-65
2022/07/28 03:24:27;;;;;;;7.33;6.63;;;15.50;99.90;;;;;;5071680;28;20499;-65
2022/07/28 03:27:02;;;;;;;6.93;5.53;;;15.50;99.90;;;;;;5072798;28;20480;-65
2022/07/28 03:29:32;;;;;;;7.90;5.20;;;15.50;99.90;;;;;;5071866;28;20519;-65
2022/07/28 03:32:00;;;;;;;5.07;4.57;;;15.40;99.90;;;;;;5072679;28;20424;-65
2022/07/28 03:34:28;;;;;;;7.67;6.87;;;15.30;99.90;;;;;;5071797;28;20461;-65
2022/07/28 03:37:01;;;;;;;9.60;6.33;;;15.30;99.90;;;;;;5072501;28;20511;-65
2022/07/28 03:39:32;;;;;;;6.33;5.30;;;15.20;99.90;;;;;;5071639;28;20444;-65
2022/07/28 03:42:01;;;;;;;6.40;4.83;;;15.20;99.90;;;;;;5072738;28;20501;-65
2022/07/28 03:44:30;;;;;;;5.47;4.97;;;15.20;99.90;;;;;;5072067;28;20442;-65
2022/07/28 03:46:59;;;;;;;6.30;5.40;;;15.10;99.90;;;;;;5072347;28;20479;-65
2022/07/28 03:49:26;;;;;;;7.30;5.03;;;15.10;99.90;;;;;;5071422;28;20510;-65
2022/07/28 03:51:57;;;;;;;6.37;5.73;;;15.10;99.90;;;;;;5071896;28;20554;-65
2022/07/28 03:54:24;;;;;;;6.13;5.50;;;15.00;99.90;;;;;;5072474;28;20443;-65
2022/07/28 03:56:52;;;;;;;9.83;6.80;;;15.00;99.90;;;;;;5071617;28;20444;-66
2022/07/28 03:59:20;;;;;;;6.93;4.67;;;15.00;99.90;;;;;;5072481;28;20476;-66
2022/07/28 04:01:47;;;;;;;6.53;5.50;;;15.00;99.90;;;;;;5071587;28;20930;-66
2022/07/28 04:04:14;;;;;;;11.33;6.80;;;15.00;99.90;;;;;;5072633;28;20470;-65
2022/07/28 04:06:41;;;;;;;9.70;6.77;;;15.00;99.90;;;;;;5071788;28;20475;-65
2022/07/28 04:09:14;;;;;;;7.87;7.07;;;15.00;99.90;;;;;;5072612;28;20823;-65
2022/07/28 04:11:42;;;;;;;6.90;6.30;;;15.10;99.90;;;;;;5072301;28;20933;-66
2022/07/28 04:14:10;;;;;;;6.83;6.23;;;15.10;99.90;;;;;;5072131;28;20440;-65
2022/07/28 04:16:37;;;;;;;6.70;5.93;;;15.10;99.90;;;;;;5071491;28;20486;-65
2022/07/28 04:19:04;;;;;;;6.97;5.97;;;15.10;99.90;;;;;;5075577;28;20827;-66
2022/07/28 04:21:36;;;;;;;8.47;7.07;;;15.10;99.90;;;;;;5075373;28;20471;-65
2022/07/28 04:24:05;;;;;;;6.50;5.87;;;15.10;99.90;;;;;;5075677;28;20517;-66
2022/07/28 04:26:32;;;;;;;7.13;5.87;;;15.10;99.90;;;;;;5074925;28;20483;-68
2022/07/28 04:28:59;;;;;;;7.60;5.80;;;15.10;99.90;;;;;;5076096;28;20445;-65
2022/07/28 04:31:27;;;;;;;6.20;5.57;;;15.10;99.90;;;;;;5075915;28;20444;-64
2022/07/28 04:33:54;;;;;;;6.20;5.60;;;15.00;99.90;;;;;;5075423;28;20530;-67
2022/07/28 04:36:23;;;;;;;6.90;6.07;;;15.10;99.90;;;;;;5076062;28;20475;-67
2022/07/28 04:38:58;;;;;;;5.93;5.30;;;15.10;99.90;;;;;;5074532;28;20525;-67
2022/07/28 04:41:26;;;;;;;6.37;5.63;;;15.20;99.90;;;;;;5073844;28;20446;-67
2022/07/28 04:43:53;;;;;;;5.93;5.10;;;15.30;99.90;;;;;;5075610;28;20432;-67
2022/07/28 04:46:20;;;;;;;6.53;5.93;;;15.30;99.90;;;;;;5074613;28;20545;-67
2022/07/28 04:48:48;;;;;;;7.60;5.57;;;15.20;99.90;;;;;;5074646;28;20935;-67
2022/07/28 04:51:21;;;;;;;13.03;8.70;;;15.20;99.90;;;;;;5075145;28;20489;-67
2022/07/28 04:53:53;;;;;;;12.07;8.00;;;15.20;99.90;;;;;;5074092;28;20919;-67
2022/07/28 04:56:20;;;;;;;11.77;7.87;;;15.30;99.90;;;;;;5075751;28;20436;-67
2022/07/28 04:58:51;;;;;;;13.63;7.17;;;15.30;99.90;;;;;;5074261;28;20566;-67
2022/07/28 05:01:20;;;;;;;9.00;7.50;;;15.30;99.90;;;;;;5074550;28;20440;-67
2022/07/28 05:03:48;;;;;;;7.00;6.30;;;15.40;99.90;;;;;;5072576;28;20470;-67
2022/07/28 05:06:17;;;;;;;9.10;7.10;;;15.50;99.90;;;;;;5075402;28;20476;-67
2022/07/28 05:08:49;;;;;;;6.93;6.33;;;15.60;99.90;;;;;;5073838;28;20440;-67
2022/07/28 05:11:16;;;;;;;10.10;7.57;;;15.60;99.90;;;;;;5075184;28;20440;-67
2022/07/28 05:13:43;;;;;;;9.30;7.37;;;15.70;99.90;;;;;;5074513;28;20519;-67
2022/07/28 05:16:15;;;;;;;10.23;7.90;;;15.70;99.90;;;;;;5074775;28;20440;-67
2022/07/28 05:18:44;;;;;;;8.23;6.97;;;15.80;99.90;;;;;;5073940;28;20501;-68
2022/07/28 05:21:12;;;;;;;8.70;6.53;;;15.80;99.90;;;;;;5074279;28;20467;-67
2022/07/28 05:23:39;;;;;;;13.50;7.10;;;15.90;99.90;;;;;;5074028;28;20496;-67
2022/07/28 05:26:07;;;;;;;8.30;7.50;;;16.00;99.90;;;;;;5072098;28;20467;-67
2022/07/28 05:28:34;;;;;;;7.73;6.93;;;16.10;99.90;;;;;;5068681;28;20519;-68
2022/07/28 05:31:12;;;;;;;8.60;7.00;;;16.20;99.90;;;;;;5072819;28;20427;-68
2022/07/28 05:33:39;;;;;;;10.60;6.50;;;16.30;99.90;;;;;;5071206;28;20491;-69
2022/07/28 05:36:06;;;;;;;8.67;7.87;;;16.40;99.90;;;;;;5072913;28;20523;-67
2022/07/28 05:38:37;;;;;;;7.37;5.80;;;16.50;99.90;;;;;;5071862;28;20451;-67
2022/07/28 05:41:09;;;;;;;7.77;6.73;;;16.60;99.90;;;;;;5073027;28;20440;-67
2022/07/28 05:43:37;;;;;;;8.00;7.20;;;16.70;99.90;;;;;;5068835;28;20497;-68
2022/07/28 05:46:04;;;;;;;8.70;7.90;;;16.80;99.90;;;;;;5073115;28;20442;-68
2022/07/28 05:48:32;;;;;;;8.53;6.73;;;16.80;99.90;;;;;;5072183;28;20843;-68
2022/07/28 05:51:03;;;;;;;8.90;6.30;;;17.00;99.90;;;;;;5071817;28;20848;-68
2022/07/28 05:53:30;;;;;;;9.63;8.33;;;17.10;99.90;;;;;;5072691;28;20471;-68
2022/07/28 05:55:59;;;;;;;8.17;7.40;;;17.20;99.90;;;;;;5072128;28;20428;-67
2022/07/28 05:58:26;;;;;;;10.13;7.50;;;17.40;99.90;;;;;;5070503;28;20467;-69
2022/07/28 06:00:53;;;;;;;7.17;6.43;;;17.40;99.90;;;;;;5071954;28;20503;-68
2022/07/28 06:03:20;;;;;;;7.83;7.13;;;17.60;99.90;;;;;;5068144;28;20527;-68
2022/07/28 06:05:49;;;;;;;7.57;6.77;;;17.70;99.90;;;;;;5071766;28;20447;-68
2022/07/28 06:08:18;;;;;;;7.50;6.80;;;17.90;99.90;;;;;;5071349;28;20555;-74
2022/07/28 06:11:07;;;;;;;7.90;6.93;;;18.00;99.90;;;;;;5069222;28;20540;-67
2022/07/28 06:13:36;;;;;;;7.50;6.80;;;18.10;99.90;;;;;;5071197;28;20448;-68
2022/07/28 06:16:06;;;;;;;8.37;7.57;;;18.20;99.90;;;;;;5072223;28;20447;-69
2022/07/28 06:18:33;;;;;;;13.50;6.53;;;18.40;99.90;;;;;;5072539;28;20440;-68
2022/07/28 06:21:00;;;;;;;7.00;6.40;;;18.50;99.90;;;;;;5072020;28;20451;-68
2022/07/28 06:23:27;;;;;;;7.93;7.20;;;18.60;99.90;;;;;;5068325;28;20463;-67
2022/07/28 06:25:55;;;;;;;7.73;6.93;;;18.70;99.90;;;;;;5072281;28;20523;-67
2022/07/28 06:28:22;;;;;;;11.70;7.03;;;18.80;99.90;;;;;;5071858;28;20576;-68
2022/07/28 06:30:51;;;;;;;8.20;7.40;;;19.00;99.90;;;;;;5072011;28;20444;-67
2022/07/28 06:33:18;;;;;;;8.60;7.80;;;19.10;99.90;;;;;;5072209;28;20509;-67
2022/07/28 06:35:45;;;;;;;9.63;7.47;;;19.20;99.90;;;;;;5066711;28;20466;-68
2022/07/28 06:38:12;;;;;;;10.33;7.60;;;19.20;99.90;;;;;;5069923;28;20431;-68
2022/07/28 06:40:40;;;;;;;9.77;7.57;;;19.30;99.90;;;;;;5069569;28;20531;-68
2022/07/28 06:43:07;;;;;;;9.23;8.23;;;19.40;99.90;;;;;;5068570;28;20455;-68
2022/07/28 06:45:34;;;;;;;9.37;8.47;;;19.50;99.90;;;;;;5070063;28;20791;-67
2022/07/28 06:48:02;;;;;;;9.30;8.00;;;19.60;99.90;;;;;;5070939;28;20481;-66
2022/07/28 06:50:29;;;;;;;8.30;7.37;;;19.70;99.90;;;;;;5072279;28;21113;-66
2022/07/28 06:52:57;;;;;;;7.90;7.10;;;19.80;99.90;;;;;;5072748;28;20478;-65
2022/07/28 06:55:24;;;;;;;8.20;7.37;;;19.90;99.90;;;;;;5073352;28;20476;-66
2022/07/28 06:57:51;;;;;;;10.33;6.87;;;20.00;99.90;;;;;;5072971;28;20502;-65
2022/07/28 07:00:19;;;;;;;10.33;7.93;;;20.20;99.90;;;;;;5073215;28;20472;-66
2022/07/28 07:02:46;;;;;;;8.20;6.90;;;20.30;99.90;;;;;;5072630;28;20471;-65
2022/07/28 07:05:14;;;;;;;10.20;8.03;;;20.30;99.50;;;;;;5073260;28;20470;-65
2022/07/28 07:07:41;;;;;;;8.07;7.07;;;20.40;99.80;;;;;;5073052;28;20480;-66
2022/07/28 07:10:09;;;;;;;10.27;8.60;;;20.50;99.70;;;;;;5073135;28;20446;-66
2022/07/28 07:12:36;;;;;;;10.13;8.13;;;20.60;99.60;;;;;;5072923;28;20435;-66
2022/07/28 07:15:05;;;;;;;7.23;6.47;;;20.70;99.00;;;;;;5072988;28;20473;-66
2022/07/28 07:17:32;;;;;;;8.07;7.27;;;20.90;98.90;;;;;;5072733;28;20524;-65
2022/07/28 07:19:59;;;;;;;9.07;6.90;;;20.90;98.40;;;;;;5073089;28;20469;-66
2022/07/28 07:22:27;;;;;;;8.27;6.97;;;21.10;97.90;;;;;;5073018;28;20449;-66
2022/07/28 07:25:14;;;;;;;8.00;6.90;;;21.10;97.90;;;;;;5072463;28;20524;-66
2022/07/28 07:27:42;;;;;;;8.03;7.13;;;21.30;98.30;;;;;;5073061;28;20602;-66
2022/07/28 07:30:11;;;;;;;9.17;6.70;;;21.40;98.30;;;;;;5073012;28;20439;-66
2022/07/28 07:32:38;;;;;;;9.90;7.00;;;21.50;97.90;;;;;;5072892;28;20779;-66
2022/07/28 07:35:07;;;;;;;8.27;7.47;;;21.60;97.40;;;;;;5072788;28;20516;-66
2022/07/28 07:37:36;;;;;;;9.83;7.40;;;21.70;97.20;;;;;;5072942;28;20470;-65
2022/07/28 07:40:05;;;;;;;7.80;7.03;;;21.90;97.40;;;;;;5072890;28;20446;-66
2022/07/28 07:42:32;;;;;;;8.50;6.83;;;22.00;97.30;;;;;;5072850;28;20538;-67
2022/07/28 07:44:59;;;;;;;8.30;7.30;;;22.10;95.70;;;;;;5072602;28;20486;-65
2022/07/28 07:47:26;;;;;;;6.40;5.60;;;22.30;95.60;;;;;;5072656;28;20523;-66
2022/07/28 07:49:53;;;;;;;8.80;6.67;;;22.30;95.70;;;;;;5072465;28;20947;-66
2022/07/28 07:52:20;;;;;;;8.27;6.67;;;22.50;95.50;;;;;;5073297;28;20505;-66
2022/07/28 07:54:48;;;;;;;6.80;6.10;;;22.60;95.30;;;;;;5076545;28;20436;-66
2022/07/28 07:57:15;;;;;;;7.90;6.07;;;22.70;95.20;;;;;;5076749;28;20526;-66
2022/07/28 07:59:42;;;;;;;9.60;6.33;;;22.80;95.00;;;;;;5076814;28;20482;-66
2022/07/28 08:02:09;;;;;;;6.90;6.20;;;23.00;94.30;;;;;;5076527;28;20535;-67
2022/07/28 08:04:36;;;;;;;8.80;6.20;;;23.10;93.60;;;;;;5076286;28;20475;-66
2022/07/28 08:07:04;;;;;;;7.77;6.67;;;23.20;93.40;;;;;;5075970;28;20444;-66
2022/07/28 08:09:31;;;;;;;7.33;6.27;;;23.40;93.30;;;;;;5076637;28;20519;-66
2022/07/28 08:11:59;;;;;;;6.00;5.40;;;23.50;93.30;;;;;;5076482;28;20472;-66
2022/07/28 08:14:26;;;;;;;8.13;6.03;;;23.60;93.40;;;;;;5076240;28;20479;-66
2022/07/28 08:16:55;;;;;;;10.10;7.03;;;23.70;93.00;;;;;;5076088;28;20451;-66
2022/07/28 08:19:22;;;;;;;9.30;4.97;;;23.80;92.40;;;;;;5075957;28;20509;-66
2022/07/28 08:21:49;;;;;;;5.30;4.80;;;23.90;92.10;;;;;;5076268;28;20515;-66
2022/07/28 08:24:16;;;;;;;9.63;5.30;;;24.00;92.10;;;;;;5075997;28;20464;-66
2022/07/28 08:26:43;;;;;;;6.10;5.47;;;24.20;91.80;;;;;;5076112;28;20435;-66
2022/07/28 08:29:11;;;;;;;6.10;5.50;;;24.20;90.60;;;;;;5075555;28;20573;-66
2022/07/28 08:31:38;;;;;;;8.17;5.77;;;24.30;91.00;;;;;;5075947;28;20522;-66
2022/07/28 08:34:05;;;;;;;7.57;5.97;;;24.50;90.50;;;;;;5076195;28;20467;-66
2022/07/28 08:36:32;;;;;;;11.50;6.17;;;24.60;89.00;;;;;;5075587;28;20444;-65
2022/07/28 08:38:58;;;;;;;6.03;5.53;;;24.70;86.70;;;;;;5075659;28;20442;-65
2022/07/28 08:41:31;;;;;;;7.20;5.73;;;24.80;87.10;;;;;;5075961;28;20919;-66
2022/07/28 08:44:02;;;;;;;8.70;6.97;;;24.90;88.10;;;;;;5075841;28;20431;-66
2022/07/28 08:46:35;;;;;;;6.17;5.23;;;25.00;82.90;;;;;;5075986;28;20432;-66
2022/07/28 08:49:05;;;;;;;12.40;6.67;;;25.10;83.40;;;;;;5075773;28;20485;-66
2022/07/28 08:51:33;;;;;;;5.70;5.10;;;25.10;81.90;;;;;;5075800;28;20531;-66
2022/07/28 08:54:01;;;;;;;7.93;5.23;;;25.20;83.80;;;;;;5075806;28;20522;-66
2022/07/28 08:56:28;;;;;;;6.07;5.30;;;25.30;84.60;;;;;;5075395;28;20515;-66
2022/07/28 08:58:56;;;;;;;5.60;5.10;;;25.40;84.60;;;;;;5075520;28;20518;-66
2022/07/28 09:01:23;;;;;;;8.20;4.77;;;25.40;83.50;;;;;;5075069;28;20771;-66
2022/07/28 09:03:52;;;;;;;8.93;4.67;;;25.60;83.40;;;;;;5075395;28;20522;-66
2022/07/28 09:06:22;;;;;;;6.40;4.83;;;25.70;83.40;;;;;;5075464;28;20467;-66
2022/07/28 09:08:49;;;;;;;8.17;5.10;;;25.80;82.40;;;;;;5075194;28;20533;-66
2022/07/28 09:11:16;;;;;;;5.73;4.70;;;25.90;80.90;;;;;;5075350;28;20462;-66
2022/07/28 09:13:43;;;;;;;7.30;5.10;;;26.00;81.00;;;;;;5075411;28;20476;-66
2022/07/28 09:16:12;;;;;;;5.43;4.90;;;26.10;80.70;;;;;;5075383;28;20791;-66
2022/07/28 09:18:39;;;;;;;5.70;5.20;;;26.20;78.30;;;;;;5071005;28;20525;-66
2022/07/28 09:21:08;;;;;;;13.47;5.97;;;26.20;78.90;;;;;;5071806;28;20482;-66
2022/07/28 09:23:45;;;;;;;9.27;5.33;;;26.40;79.00;;;;;;5073678;28;20492;-66
2022/07/28 09:26:12;;;;;;;5.80;5.20;;;26.50;78.60;;;;;;5072248;28;20907;-66
2022/07/28 09:28:52;;;;;;;7.10;5.10;;;26.60;79.00;;;;;;5073708;28;20475;-66
2022/07/28 09:31:20;;;;;;;5.40;4.60;;;26.70;77.50;;;;;;5072936;28;20519;-66
2022/07/28 09:33:56;;;;;;;6.90;5.37;;;26.80;77.80;;;;;;5073526;28;20551;-66
2022/07/28 09:36:24;;;;;;;8.20;5.73;;;26.90;76.20;;;;;;5071361;28;20546;-66
2022/07/28 09:38:51;;;;;;;6.07;5.30;;;27.10;75.20;;;;;;5073268;28;20478;-66
2022/07/28 09:41:21;;;;;;;6.53;4.90;;;27.20;75.70;;;;;;5073182;28;20444;-66
2022/07/28 09:43:49;;;;;;;7.80;5.60;;;27.30;74.70;;;;;;5074378;28;20471;-66
2022/07/28 09:46:17;;;;;;;7.73;5.30;;;27.40;73.30;;;;;;5074560;28;20516;-66
2022/07/28 09:48:53;;;;;;;8.70;5.57;;;27.40;72.00;;;;;;5074527;28;20997;-66
2022/07/28 09:51:25;;;;;;;4.83;4.30;;;27.50;72.80;;;;;;5074466;28;20436;-66
2022/07/28 09:53:52;;;;;;;6.33;5.43;;;27.50;71.10;;;;;;5074530;28;21246;-66
2022/07/28 09:56:22;;;;;;;6.90;5.80;;;27.60;72.20;;;;;;5074712;28;20436;-65
2022/07/28 09:58:54;;;;;;;8.57;5.03;;;27.70;70.40;;;;;;5074601;28;20440;-66
2022/07/28 10:01:21;;;;;;;6.80;5.03;;;27.70;64.50;;;;;;5073920;28;20482;-66
2022/07/28 10:03:51;;;;;;;6.90;4.67;;;27.70;64.30;;;;;;5074573;28;20528;-66
2022/07/28 10:06:27;;;;;;;6.73;5.10;;;27.80;64.30;;;;;;5074362;28;20495;-66
2022/07/28 10:08:56;;;;;;;5.13;4.37;;;27.80;64.10;;;;;;5074204;28;20989;-66
2022/07/28 10:11:26;;;;;;;5.50;3.90;;;27.80;65.00;;;;;;5073916;28;20447;-66
2022/07/28 10:13:59;;;;;;;6.37;4.40;;;27.90;67.30;;;;;;5074041;28;20944;-66
2022/07/28 10:16:27;;;;;;;7.67;4.63;;;27.90;66.30;;;;;;5073657;28;20448;-66
2022/07/28 10:18:55;;;;;;;5.20;4.37;;;27.90;62.50;;;;;;5074020;28;20436;-66
2022/07/28 10:21:23;;;;;;;4.93;3.80;;;27.90;63.50;;;;;;5074206;28;20787;-66
2022/07/28 10:23:54;;;;;;;4.73;3.77;;;27.90;65.50;;;;;;5073726;28;20554;-66
2022/07/28 10:26:25;;;;;;;6.53;4.10;;;28.00;65.00;;;;;;5073509;28;20440;-66
2022/07/28 10:28:54;;;;;;;4.90;3.77;;;28.10;64.50;;;;;;5073355;28;20989;-66
2022/07/28 10:31:32;;;;;;;5.53;3.93;;;28.20;62.60;;;;;;5073636;28;20440;-66
2022/07/28 10:34:01;;;;;;;3.97;3.27;;;28.30;60.90;;;;;;5073908;28;20439;-65
2022/07/28 10:36:31;;;;;;;4.30;3.77;;;28.30;61.00;;;;;;5073469;28;20867;-65
2022/07/28 10:39:06;;;;;;;4.47;4.00;;;28.30;58.20;;;;;;5073880;28;20565;-65
2022/07/28 10:41:40;;;;;;;5.77;3.40;;;28.40;61.20;;;;;;5073409;28;20459;-66
2022/07/28 10:44:12;;;;;;;5.43;4.07;;;28.40;61.00;;;;;;5073673;28;20439;-66
2022/07/28 10:46:41;;;;;;;4.20;3.43;;;28.50;59.80;;;;;;5073532;28;20432;-66
2022/07/28 10:49:09;;;;;;;7.40;3.60;;;28.60;60.30;;;;;;5072999;28;20487;-66
2022/07/28 10:51:37;;;;;;;4.37;3.20;;;28.60;59.80;;;;;;5073595;28;20472;-66
2022/07/28 10:54:17;;;;;;;4.70;4.07;;;28.70;59.50;;;;;;5073404;28;20436;-66
2022/07/28 10:56:51;;;;;;;3.90;3.40;;;28.70;57.70;;;;;;5073727;28;20519;-66
2022/07/28 10:59:38;;;;;;;4.10;3.33;;;28.70;58.80;;;;;;5073453;28;20522;-66
2022/07/28 11:02:05;;;;;;;3.60;2.90;;;28.70;58.50;;;;;;5073209;28;20475;-66
2022/07/28 11:05:00;;;;;;;5.60;3.23;;;28.80;59.60;;;;;;5073648;28;20527;-68
2022/07/28 11:07:38;;;;;;;6.70;2.97;;;28.90;60.10;;;;;;5038135;28;20447;-66
2022/07/28 11:10:17;;;;;;;5.73;3.57;;;28.90;59.40;;;;;;5072698;28;20541;-66
2022/07/28 11:12:48;;;;;;;3.73;3.07;;;29.00;59.50;;;;;;5073311;28;20468;-66
2022/07/28 11:15:34;;;;;;;12.13;4.70;;;29.10;58.50;;;;;;5073189;28;20436;-67
2022/07/28 11:18:05;;;;;;;4.33;3.33;;;29.10;59.10;;;;;;5067656;28;20497;-66
2022/07/28 11:21:07;;;;;;;4.23;3.07;;;29.10;58.40;;;;;;5072422;28;20436;-68
2022/07/28 11:23:53;;;;;;;3.37;2.67;;;29.10;57.50;;;;;;5072400;28;20542;-66
2022/07/28 11:26:36;;;;;;;3.63;3.00;;;29.20;56.90;;;;;;5071003;28;20443;-66
2022/07/28 11:29:44;;;;;;;4.70;3.07;;;29.20;57.40;;;;;;5052449;28;20491;-66
2022/07/28 11:32:12;;;;;;;7.57;3.77;;;29.20;57.10;;;;;;5060996;28;20444;-66
2022/07/28 11:35:08;;;;;;;5.57;3.47;;;29.20;57.70;;;;;;5072242;28;20489;-66
2022/07/28 11:38:07;;;;;;;5.13;2.97;;;29.30;57.70;;;;;;5052760;28;20435;-67
2022/07/28 11:40:36;;;;;;;4.33;3.70;;;29.40;58.90;;;;;;5052902;28;20842;-69
2022/07/28 11:46:34;;;;;;;6.43;3.30;;;29.50;56.40;;;;;;5131223;27;20474;-66
2022/07/28 11:49:19;;;;;;;4.77;3.67;;;29.40;56.70;;;;;;5111277;28;20484;-66
2022/07/28 11:52:08;;;;;;;5.03;3.10;;;29.40;58.20;;;;;;5111098;28;20929;-66
2022/07/28 11:54:36;;;;;;;4.37;3.00;;;29.40;57.20;;;;;;5110680;28;20442;-67
2022/07/28 11:57:04;;;;;;;4.87;4.07;;;29.40;57.70;;;;;;5110599;28;20493;-67
2022/07/28 11:59:41;;;;;;;7.43;3.53;;;29.50;58.20;;;;;;5110681;28;20518;-66
2022/07/28 12:02:14;;;;;;;4.30;3.30;;;29.60;57.80;;;;;;5110584;28;20474;-67
2022/07/28 12:04:41;;;;;;;5.20;3.73;;;29.70;59.90;;;;;;5111186;28;21020;-67
2022/07/28 12:07:10;;;;;;;4.10;3.70;;;29.80;57.80;;;;;;5120519;27;20465;-67
2022/07/28 12:09:38;;;;;;;3.90;3.43;;;29.90;56.80;;;;;;5120858;27;20761;-66
2022/07/28 12:12:07;;;;;;;3.93;3.53;;;29.90;56.40;;;;;;5118225;28;20490;-66
2022/07/28 12:14:39;;;;;;;5.53;3.40;;;29.90;56.30;;;;;;5116637;27;20838;-67
2022/07/28 12:17:06;;;;;;;3.60;3.23;;;29.80;54.50;;;;;;5117502;28;20824;-66
2022/07/28 12:19:36;;;;;;;4.40;4.00;;;29.80;55.20;;;;;;5117556;28;20446;-68
2022/07/28 12:22:10;;;;;;;4.90;3.33;;;29.70;56.90;;;;;;5117950;28;20438;-66
2022/07/28 12:24:38;;;;;;;3.93;3.53;;;29.70;55.20;;;;;;5115829;27;20568;-67
2022/07/28 12:27:05;;;;;;;5.50;3.43;;;29.70;56.70;;;;;;5120250;28;20445;-66
2022/07/28 12:29:32;;;;;;;4.00;2.90;;;29.80;57.20;;;;;;5118075;28;20532;-66
2022/07/28 12:32:03;;;;;;;5.40;3.73;;;29.80;56.30;;;;;;5117261;28;20437;-66
2022/07/28 12:34:31;;;;;;;5.30;3.80;;;29.80;56.80;;;;;;5119418;28;20866;-67
2022/07/28 12:37:01;;;;;;;3.60;3.27;;;29.70;56.10;;;;;;5119119;28;20441;-67
2022/07/28 12:39:31;;;;;;;4.93;4.37;;;29.70;56.90;;;;;;5112620;28;20522;-66
2022/07/28 12:42:03;;;;;;;5.13;4.23;;;29.80;57.60;;;;;;5114507;27;20453;-66
2022/07/28 12:44:37;;;;;;;4.23;3.83;;;29.80;57.10;;;;;;5113584;28;20497;-66
2022/07/28 12:47:07;;;;;;;5.07;3.97;;;29.70;57.10;;;;;;5117725;28;20841;-67
2022/07/28 12:49:35;;;;;;;4.00;3.60;;;29.70;58.30;;;;;;5119203;28;20434;-67
2022/07/28 12:52:16;;;;;;;6.20;4.27;;;29.70;57.60;;;;;;5119851;27;20427;-66
2022/07/28 12:54:43;;;;;;;4.20;3.33;;;29.70;58.20;;;;;;5116975;28;20997;-66
2022/07/28 12:57:11;;;;;;;3.60;3.10;;;29.70;58.90;;;;;;5108752;28;20504;-67
2022/07/28 12:59:38;;;;;;;6.10;3.93;;;29.80;58.30;;;;;;5104447;28;20989;-67
2022/07/28 13:02:07;;;;;;;5.93;4.10;;;29.90;57.50;;;;;;5102750;28;20438;-67
2022/07/28 13:04:43;;;;;;;3.93;3.30;;;29.90;57.40;;;;;;5104844;28;20837;-66
2022/07/28 13:07:12;;;;;;;4.43;3.60;;;30.00;57.90;;;;;;5099247;28;20505;-67